createdAt,value
2019-02-19T00:01:53.671Z,95.77
2019-02-19T00:04:26.453Z,89.80
2019-02-19T00:06:54.120Z,98.23
2019-02-19T00:09:22.389Z,93.00
2019-02-19T00:11:50.665Z,94.87
2019-02-19T00:14:18.941Z,89.90
2019-02-19T00:16:47.423Z,97.10
2019-02-19T00:19:15.494Z,104.23
2019-02-19T00:21:43.563Z,104.20
2019-02-19T00:24:11.841Z,106.23
2019-02-19T00:26:41.344Z,105.40
2019-02-19T00:29:09.621Z,106.53
2019-02-19T00:31:37.895Z,106.77
2019-02-19T00:34:06.170Z,102.70
2019-02-19T00:36:36.085Z,109.60
2019-02-19T00:39:17.697Z,109.10
2019-02-19T00:41:45.334Z,112.30
2019-02-19T00:44:13.405Z,108.07
2019-02-19T00:46:41.884Z,113.30
2019-02-19T00:49:10.366Z,114.93
2019-02-19T00:51:38.847Z,111.23
2019-02-19T00:54:07.124Z,109.47
2019-02-19T00:56:35.399Z,109.27
2019-02-19T00:59:03.688Z,111.77
2019-02-19T01:01:32.156Z,104.63
2019-02-19T01:04:00.638Z,106.57
2019-02-19T01:06:30.142Z,116.30
2019-02-19T01:08:59.234Z,114.20
2019-02-19T01:11:26.898Z,108.77
2019-02-19T01:13:55.241Z,111.60
2019-02-19T01:16:23.652Z,104.90
2019-02-19T01:18:53.156Z,109.70
2019-02-19T01:21:22.661Z,123.03
2019-02-19T01:23:52.015Z,115.43
2019-02-19T01:26:20.440Z,108.03
2019-02-19T01:29:08.386Z,110.57
2019-02-19T01:31:37.682Z,121.17
2019-02-19T01:34:07.183Z,123.57
2019-02-19T01:36:36.895Z,122.53
2019-02-19T01:39:05.373Z,111.03
2019-02-19T01:41:34.877Z,120.87
2019-02-19T01:44:03.153Z,111.53
2019-02-19T01:46:31.632Z,108.57
2019-02-19T01:49:00.112Z,103.50
2019-02-19T01:51:28.593Z,107.90
2019-02-19T01:54:13.729Z,94.77
2019-02-19T01:56:41.324Z,116.13
2019-02-19T01:59:09.805Z,98.10
2019-02-19T02:01:38.286Z,99.30
2019-02-19T02:04:06.608Z,114.90
2019-02-19T02:06:36.065Z,113.60
2019-02-19T02:09:05.162Z,103.93
2019-02-19T02:11:45.344Z,109.83
2019-02-19T02:14:12.975Z,102.17
2019-02-19T02:16:41.456Z,102.63
2019-02-19T02:19:09.733Z,100.13
2019-02-19T02:21:38.007Z,107.30
2019-02-19T02:24:06.288Z,109.07
2019-02-19T02:26:34.558Z,119.23
2019-02-19T02:29:02.835Z,143.40
2019-02-19T02:31:31.204Z,128.40
2019-02-19T02:33:58.980Z,123.57
2019-02-19T02:36:27.457Z,110.63
2019-02-19T02:38:55.937Z,118.37
2019-02-19T02:41:24.418Z,121.43
2019-02-19T02:43:52.900Z,124.43
2019-02-19T02:46:21.379Z,128.90
2019-02-19T02:48:49.860Z,126.63
2019-02-19T02:51:19.364Z,131.40
2019-02-19T02:53:47.639Z,132.03
2019-02-19T02:56:15.916Z,137.33
2019-02-19T02:58:43.732Z,135.23
2019-02-19T03:01:12.057Z,145.57
2019-02-19T03:03:40.129Z,146.90
2019-02-19T03:06:15.777Z,138.90
2019-02-19T03:08:44.260Z,133.33
2019-02-19T03:11:25.417Z,137.60
2019-02-19T03:13:53.098Z,130.53
2019-02-19T03:16:23.011Z,136.93
2019-02-19T03:18:51.081Z,156.63
2019-02-19T03:21:19.562Z,138.60
2019-02-19T03:23:47.848Z,131.10
2019-02-19T03:26:16.113Z,133.30
2019-02-19T03:28:44.593Z,123.93
2019-02-19T03:31:13.076Z,143.40
2019-02-19T03:33:41.146Z,120.73
2019-02-19T03:36:09.216Z,116.73
2019-02-19T03:38:37.293Z,115.23
2019-02-19T03:41:05.358Z,115.23
2019-02-19T03:43:33.430Z,112.60
2019-02-19T03:46:01.505Z,118.43
2019-02-19T03:48:48.934Z,124.97
2019-02-19T03:51:16.690Z,125.60
2019-02-19T03:53:45.171Z,123.10
2019-02-19T03:56:14.675Z,131.80
2019-02-19T03:58:44.178Z,127.67
2019-02-19T04:01:12.660Z,128.33
2019-02-19T04:03:41.139Z,135.37
2019-02-19T04:06:09.416Z,127.00
2019-02-19T04:08:37.691Z,129.73
2019-02-19T04:11:05.967Z,135.00
2019-02-19T04:13:34.244Z,133.00
2019-02-19T04:16:02.520Z,136.00
2019-02-19T04:18:30.793Z,131.20
2019-02-19T04:20:59.068Z,134.77
2019-02-19T04:23:27.344Z,138.77
2019-02-19T04:25:56.234Z,137.00
2019-02-19T04:28:24.304Z,141.53
2019-02-19T04:30:52.377Z,134.53
2019-02-19T04:33:20.450Z,137.23
2019-02-19T04:35:48.518Z,136.43
2019-02-19T04:38:16.588Z,136.07
2019-02-19T04:40:44.660Z,144.60
2019-02-19T04:43:13.140Z,141.67
2019-02-19T04:45:42.644Z,144.40
2019-02-19T04:48:10.920Z,131.67
2019-02-19T04:50:40.634Z,132.83
2019-02-19T04:53:09.111Z,138.07
2019-02-19T04:55:37.591Z,134.17
2019-02-19T04:58:05.866Z,135.97
2019-02-19T05:00:34.141Z,137.03
2019-02-19T05:03:02.420Z,140.73
2019-02-19T05:05:30.693Z,139.80
2019-02-19T05:07:58.970Z,144.73
2019-02-19T05:10:27.310Z,146.57
2019-02-19T05:12:55.315Z,146.00
2019-02-19T05:15:23.592Z,140.43
2019-02-19T05:17:51.866Z,136.33
2019-02-19T05:20:20.145Z,139.70
2019-02-19T05:22:48.419Z,140.80
2019-02-19T05:25:17.986Z,137.30
2019-02-19T05:27:59.666Z,138.77
2019-02-19T05:30:27.389Z,138.07
2019-02-19T05:32:55.857Z,135.17
2019-02-19T05:35:24.339Z,132.57
2019-02-19T05:37:52.818Z,133.90
2019-02-19T05:40:21.298Z,126.63
2019-02-19T05:42:51.009Z,127.13
2019-02-19T05:45:19.488Z,130.73
2019-02-19T05:47:47.970Z,127.60
2019-02-19T05:50:17.679Z,126.53
2019-02-19T05:52:45.958Z,126.93
2019-02-19T05:55:14.231Z,129.80
2019-02-19T05:57:42.505Z,127.20
2019-02-19T06:00:12.215Z,123.03
2019-02-19T06:02:52.939Z,124.47
2019-02-19T06:05:20.648Z,126.37
2019-02-19T06:07:48.924Z,124.80
2019-02-19T06:10:16.992Z,122.13
2019-02-19T06:12:46.297Z,119.13
2019-02-19T06:15:14.514Z,122.67
2019-02-19T06:17:44.275Z,120.53
2019-02-19T06:20:12.551Z,119.50
2019-02-19T06:22:40.830Z,121.00
2019-02-19T06:25:10.335Z,118.20
2019-02-19T06:27:38.615Z,118.40
2019-02-19T06:30:10.407Z,122.07
2019-02-19T06:32:38.025Z,123.33
2019-02-19T06:35:07.147Z,119.27
2019-02-19T06:37:34.624Z,115.23
2019-02-19T06:40:05.515Z,124.07
2019-02-19T06:42:33.381Z,120.87
2019-02-19T06:45:01.657Z,117.93
2019-02-19T06:47:29.932Z,114.03
2019-02-19T06:49:58.208Z,110.63
2019-02-19T06:52:26.484Z,113.20
2019-02-19T06:54:54.761Z,113.90
2019-02-19T06:57:23.035Z,115.50
2019-02-19T06:59:51.312Z,114.87
2019-02-19T07:02:21.225Z,110.90
2019-02-19T07:04:50.319Z,107.37
2019-02-19T07:07:18.391Z,105.77
2019-02-19T07:09:46.872Z,108.67
2019-02-19T07:12:15.351Z,105.30
2019-02-19T07:14:43.627Z,107.27
2019-02-19T07:17:15.737Z,104.90
2019-02-19T07:19:41.612Z,101.13
2019-02-19T07:22:11.117Z,103.27
2019-02-19T07:24:39.597Z,100.43
2019-02-19T07:27:27.494Z,102.13
2019-02-19T07:29:55.195Z,100.97
2019-02-19T07:32:23.678Z,96.17
2019-02-19T07:34:52.157Z,93.47
2019-02-19T07:37:20.637Z,95.27
2019-02-19T07:39:48.913Z,99.83
2019-02-19T07:42:17.189Z,96.17
2019-02-19T07:44:45.464Z,97.03
2019-02-19T07:47:13.740Z,93.70
2019-02-19T07:49:42.015Z,87.30
2019-02-19T07:52:10.291Z,87.17
2019-02-19T07:54:38.570Z,85.73
2019-02-19T07:57:06.638Z,83.13
2019-02-19T07:59:35.120Z,85.10
2019-02-19T08:02:03.600Z,86.93
2019-02-19T08:04:32.085Z,87.77
2019-02-19T08:07:00.767Z,83.60
2019-02-19T08:09:29.246Z,82.90
2019-02-19T08:12:10.938Z,78.73
2019-02-19T08:14:38.494Z,78.53
2019-02-19T08:17:08.481Z,77.00
2019-02-19T08:19:38.117Z,81.83
2019-02-19T08:22:05.781Z,79.40
2019-02-19T08:24:34.259Z,78.27
2019-02-19T08:27:02.536Z,74.43
2019-02-19T08:29:30.810Z,78.40
2019-02-19T08:31:59.291Z,78.10
2019-02-19T08:34:27.773Z,78.50
2019-02-19T08:36:56.252Z,75.23
2019-02-19T08:39:24.734Z,71.83
2019-02-19T08:41:53.256Z,73.03
2019-02-19T08:44:21.694Z,73.30
2019-02-19T08:46:50.174Z,70.33
2019-02-19T08:49:18.660Z,67.53
2019-02-19T08:51:55.750Z,60.97
2019-02-19T08:54:17.049Z,60.30
2019-02-19T08:56:45.530Z,59.38
2019-02-19T08:59:13.606Z,60.83
2019-02-19T09:01:41.467Z,58.00
2019-02-19T09:04:09.951Z,58.33
2019-02-19T09:06:38.435Z,57.33
2019-02-19T09:09:06.909Z,55.50
2019-02-19T09:11:35.395Z,55.60
2019-02-19T09:14:03.869Z,55.63
2019-02-19T09:16:32.350Z,53.58
2019-02-19T09:19:00.830Z,54.85
2019-02-19T09:21:29.311Z,54.07
2019-02-19T09:23:58.521Z,54.37
2019-02-19T09:26:26.682Z,55.03
2019-02-19T09:28:55.163Z,53.50
2019-02-19T09:31:23.642Z,53.07
2019-02-19T09:33:51.713Z,54.00
2019-02-19T09:36:19.784Z,53.03
2019-02-19T09:38:48.265Z,54.70
2019-02-19T09:41:16.745Z,55.30
2019-02-19T09:43:45.226Z,53.67
2019-02-19T09:46:13.502Z,51.63
2019-02-19T09:48:41.983Z,49.73
2019-02-19T09:51:10.463Z,49.48
2019-02-19T09:53:38.944Z,49.40
2019-02-19T09:56:07.424Z,48.23
2019-02-19T09:58:35.905Z,46.35
2019-02-19T10:01:04.384Z,46.57
2019-02-19T10:03:32.868Z,46.83
2019-02-19T10:06:01.347Z,47.98
2019-02-19T10:08:29.829Z,46.37
2019-02-19T10:10:58.310Z,42.38
2019-02-19T10:13:26.788Z,42.75
2019-02-19T10:15:57.111Z,41.88
2019-02-19T10:18:25.591Z,42.93
2019-02-19T10:20:54.074Z,44.27
2019-02-19T10:23:22.559Z,41.83
2019-02-19T10:25:51.033Z,43.80
2019-02-19T10:28:19.513Z,42.58
2019-02-19T10:30:47.993Z,42.73
2019-02-19T10:33:16.474Z,41.83
2019-02-19T10:35:44.954Z,42.23
2019-02-19T10:38:13.233Z,42.38
2019-02-19T10:40:41.506Z,39.53
2019-02-19T10:43:09.783Z,40.38
2019-02-19T10:45:38.057Z,39.75
2019-02-19T10:48:06.333Z,38.17
2019-02-19T10:50:34.816Z,38.35
2019-02-19T10:53:03.091Z,39.05
2019-02-19T10:55:31.570Z,38.35
2019-02-19T10:58:00.050Z,39.13
2019-02-19T11:00:29.554Z,37.13
2019-02-19T11:02:58.036Z,37.85
2019-02-19T11:05:26.515Z,35.75
2019-02-19T11:07:54.791Z,35.33
2019-02-19T11:10:23.067Z,35.58
2019-02-19T11:12:51.345Z,35.20
2019-02-19T11:15:19.618Z,35.50
2019-02-19T11:17:48.099Z,33.75
2019-02-19T11:20:21.062Z,35.63
2019-02-19T11:22:48.747Z,34.98
2019-02-19T11:25:17.226Z,33.35
2019-02-19T11:27:45.707Z,34.00
2019-02-19T11:30:15.774Z,33.00
2019-02-19T11:32:43.489Z,32.88
2019-02-19T11:35:11.969Z,32.93
2019-02-19T11:37:40.449Z,32.00
2019-02-19T11:40:12.840Z,32.53
2019-02-19T11:42:40.485Z,32.93
2019-02-19T11:45:14.084Z,30.88
2019-02-19T11:47:41.744Z,28.30
2019-02-19T11:50:11.618Z,26.77
2019-02-19T11:52:39.319Z,26.73
2019-02-19T11:55:10.544Z,28.40
2019-02-19T11:57:38.942Z,26.77
2019-02-19T12:00:15.001Z,25.27
2019-02-19T12:02:43.480Z,26.35
2019-02-19T12:05:11.961Z,23.92
2019-02-19T12:07:40.261Z,26.90
2019-02-19T12:10:08.925Z,27.55
2019-02-19T12:12:36.583Z,26.77
2019-02-19T12:15:10.672Z,26.20
2019-02-19T12:17:38.273Z,27.25
2019-02-19T12:20:12.266Z,26.68
2019-02-19T12:22:39.722Z,25.62
2019-02-19T12:25:08.485Z,29.12
2019-02-19T12:27:36.273Z,29.30
2019-02-19T12:30:08.186Z,27.22
2019-02-19T12:32:36.515Z,26.82
2019-02-19T12:35:05.457Z,29.72
2019-02-19T12:37:34.086Z,38.55
2019-02-19T12:40:02.568Z,39.60
2019-02-19T12:42:31.047Z,34.18
2019-02-19T12:44:59.540Z,30.68
2019-02-19T12:47:28.010Z,32.30
2019-02-19T12:49:56.489Z,32.83
2019-02-19T12:52:24.969Z,39.38
2019-02-19T12:54:53.041Z,34.35
2019-02-19T12:57:21.520Z,30.02
2019-02-19T12:59:56.415Z,33.35
2019-02-19T13:02:19.916Z,35.48
2019-02-19T13:04:48.396Z,30.70
2019-02-19T13:07:16.884Z,31.75
2019-02-19T13:09:45.358Z,44.70
2019-02-19T13:12:13.838Z,33.40
2019-02-19T13:14:42.320Z,33.30
2019-02-19T13:17:10.798Z,40.23
2019-02-19T13:19:39.074Z,37.23
2019-02-19T13:22:07.557Z,33.40
2019-02-19T13:24:35.889Z,31.65
2019-02-19T13:27:04.314Z,32.08
2019-02-19T13:29:32.791Z,32.23
2019-02-19T13:32:01.271Z,34.20
2019-02-19T13:34:29.548Z,46.02
2019-02-19T13:36:57.824Z,38.20
2019-02-19T13:39:26.149Z,41.40
2019-02-19T13:41:53.762Z,37.30
2019-02-19T13:44:22.243Z,34.65
2019-02-19T13:46:50.723Z,34.43
2019-02-19T13:49:18.997Z,32.88
2019-02-19T13:51:47.273Z,33.90
2019-02-19T13:54:17.188Z,33.18
2019-02-19T13:56:45.463Z,34.08
2019-02-19T13:59:13.738Z,32.90
2019-02-19T14:01:42.015Z,33.98
2019-02-19T14:04:10.495Z,26.75
2019-02-19T14:06:38.975Z,29.47
2019-02-19T14:09:07.455Z,28.17
2019-02-19T14:11:35.936Z,27.47
2019-02-19T14:14:08.719Z,26.73
2019-02-19T14:16:39.041Z,22.07
2019-02-19T14:19:09.367Z,20.80
2019-02-19T14:21:44.828Z,17.27
2019-02-19T14:24:17.386Z,15.77
2019-02-19T14:27:03.479Z,16.03
2019-02-19T14:32:40.580Z,15.33
2019-02-19T14:35:22.988Z,23.17
2019-02-19T14:38:10.109Z,27.87
2019-02-19T14:40:40.230Z,29.17
2019-02-19T14:43:39.016Z,35.63
2019-02-19T14:46:08.945Z,27.63
2019-02-19T14:48:55.637Z,22.13
2019-02-19T14:51:25.961Z,31.63
2019-02-19T14:53:56.084Z,31.37
2019-02-19T14:56:42.991Z,36.13
2019-02-19T14:59:18.846Z,27.60
2019-02-19T15:02:01.047Z,21.73
2019-02-19T15:04:43.054Z,23.20
2019-02-19T15:07:19.307Z,19.37
2019-02-19T15:10:06.222Z,20.10
2019-02-19T15:12:36.339Z,37.77
2019-02-19T15:15:24.480Z,23.60
2019-02-19T15:21:00.969Z,26.43
2019-02-19T15:23:37.846Z,21.20
2019-02-19T15:26:16.978Z,20.50
2019-02-19T15:29:03.479Z,29.03
2019-02-19T15:31:49.981Z,19.97
2019-02-19T15:34:20.305Z,21.73
2019-02-19T15:36:59.026Z,20.57
2019-02-19T15:39:31.807Z,18.90
2019-02-19T15:45:10.550Z,18.67
2019-02-19T15:47:56.699Z,19.20
2019-02-19T15:50:29.422Z,20.07
2019-02-19T15:52:59.336Z,17.60
2019-02-19T15:55:32.120Z,17.63
2019-02-19T16:01:06.580Z,19.33
2019-02-19T16:03:36.474Z,20.97
2019-02-19T16:06:07.207Z,20.23
2019-02-19T16:11:51.831Z,20.80
2019-02-19T16:14:30.206Z,20.83
2019-02-19T16:17:17.109Z,20.80
2019-02-19T16:20:02.389Z,20.70
2019-02-19T16:22:50.283Z,23.57
2019-02-19T16:25:19.456Z,18.97
2019-02-19T16:28:00.644Z,20.10
2019-02-19T16:30:32.874Z,20.27
2019-02-19T16:33:16.600Z,20.27
2019-02-19T16:35:48.544Z,19.33
2019-02-19T16:38:26.722Z,19.43
2019-02-19T16:41:08.060Z,20.63
2019-02-19T16:43:53.810Z,21.07
2019-02-19T16:46:39.279Z,23.10
2019-02-19T16:49:20.224Z,28.83
2019-02-19T16:51:52.087Z,27.33
2019-02-19T16:54:36.049Z,29.47
2019-02-19T16:57:17.077Z,27.17
2019-02-19T17:00:02.553Z,27.30
2019-02-19T17:02:34.440Z,26.53
2019-02-19T17:05:16.194Z,26.87
2019-02-19T17:07:45.702Z,27.67
2019-02-19T17:10:34.460Z,24.97
2019-02-19T17:13:04.578Z,24.80
2019-02-19T17:15:51.285Z,26.10
2019-02-19T17:18:23.068Z,25.87
2019-02-19T17:20:59.099Z,25.60
2019-02-19T17:23:29.015Z,27.37
2019-02-19T17:26:15.516Z,27.63
2019-02-19T17:28:45.673Z,29.40
2019-02-19T17:31:24.974Z,28.10
2019-02-19T17:33:54.683Z,28.33
2019-02-19T17:36:39.961Z,29.03
2019-02-19T17:39:09.925Z,28.60
2019-02-19T17:41:39.986Z,30.23
2019-02-19T17:44:12.973Z,29.27
2019-02-19T17:46:43.162Z,28.83
2019-02-19T17:49:22.017Z,30.97
2019-02-19T17:52:04.220Z,32.03
2019-02-19T17:54:37.382Z,31.57
2019-02-19T17:57:12.854Z,28.80
2019-02-19T17:59:58.332Z,29.83
2019-02-19T18:02:28.114Z,27.33
2019-02-19T18:05:00.413Z,30.53
2019-02-19T18:07:35.871Z,30.83
2019-02-19T18:13:18.080Z,31.77
2019-02-19T18:15:57.515Z,33.03
2019-02-19T18:18:25.693Z,31.53
2019-02-19T18:20:55.252Z,34.57
2019-02-19T18:23:23.470Z,33.60
2019-02-19T18:25:51.542Z,32.27
2019-02-19T18:28:19.411Z,32.27
2019-02-19T18:30:48.092Z,31.37
2019-02-19T18:33:15.885Z,31.57
2019-02-19T18:35:43.163Z,31.13
2019-02-19T18:38:10.503Z,34.43
2019-02-19T18:40:37.939Z,34.10
2019-02-19T18:43:05.486Z,33.93
2019-02-19T18:45:33.053Z,32.30
2019-02-19T18:48:00.424Z,29.83
2019-02-19T18:50:27.781Z,30.83
2019-02-19T18:52:55.081Z,32.83
2019-02-19T18:55:22.401Z,29.00
2019-02-19T18:57:49.768Z,30.73
2019-02-19T19:00:17.268Z,31.33
2019-02-19T19:02:44.636Z,30.50
2019-02-19T19:05:11.918Z,31.57
2019-02-19T19:07:39.463Z,31.50
2019-02-19T19:10:09.226Z,29.20
2019-02-19T19:12:36.541Z,30.50
2019-02-19T19:15:08.894Z,30.13
2019-02-19T19:17:37.095Z,29.70
2019-02-19T19:20:09.796Z,29.70
2019-02-19T19:22:37.152Z,28.13
2019-02-19T19:25:05.017Z,27.93
2019-02-19T19:27:32.321Z,27.17
2019-02-19T19:29:59.617Z,24.60
2019-02-19T19:32:27.102Z,27.40
2019-02-19T19:34:54.518Z,24.47
2019-02-19T19:37:21.801Z,24.77
2019-02-19T19:39:49.118Z,25.50
2019-02-19T19:42:16.435Z,25.27
2019-02-19T19:44:43.707Z,24.03
2019-02-19T19:47:11.021Z,24.27
2019-02-19T19:49:38.310Z,23.77
2019-02-19T19:52:05.654Z,23.17
2019-02-19T19:54:32.933Z,24.53
2019-02-19T19:57:00.317Z,24.47
2019-02-19T19:59:27.628Z,22.70
2019-02-19T20:01:55.019Z,24.30
2019-02-19T20:04:22.301Z,23.27
2019-02-19T20:06:49.624Z,23.50
2019-02-19T20:09:16.962Z,24.10
2019-02-19T20:11:44.345Z,25.17
2019-02-19T20:14:11.687Z,24.90
2019-02-19T20:16:39.006Z,26.23
2019-02-19T20:19:07.254Z,23.77
2019-02-19T20:21:34.909Z,24.30
2019-02-19T20:24:02.192Z,23.47
2019-02-19T20:26:29.521Z,21.83
2019-02-19T20:28:56.836Z,22.23
2019-02-19T20:31:24.193Z,22.67
2019-02-19T20:33:51.529Z,21.27
2019-02-19T20:36:18.813Z,21.17
2019-02-19T20:38:46.148Z,21.10
2019-02-19T20:41:13.671Z,19.97
2019-02-19T20:43:41.012Z,19.90
2019-02-19T20:46:08.433Z,19.53
2019-02-19T20:48:35.737Z,17.80
2019-02-19T20:51:03.015Z,22.63
2019-02-19T20:53:30.328Z,30.67
2019-02-19T20:55:57.641Z,19.53
2019-02-19T20:58:24.933Z,16.23
2019-02-19T21:00:53.335Z,15.77
2019-02-19T21:03:20.706Z,16.47
2019-02-19T21:05:48.050Z,16.07
2019-02-19T21:08:15.302Z,16.97
2019-02-19T21:10:42.649Z,15.87
2019-02-19T21:13:09.945Z,17.13
2019-02-19T21:15:37.221Z,15.27
2019-02-19T21:18:04.535Z,15.67
2019-02-19T21:20:31.836Z,17.10
2019-02-19T21:22:59.116Z,16.00
2019-02-19T21:25:30.998Z,15.13
2019-02-19T21:27:55.505Z,15.63
2019-02-19T21:30:22.785Z,16.33
2019-02-19T21:32:50.134Z,16.27
2019-02-19T21:35:17.413Z,14.57
2019-02-19T21:37:45.283Z,14.13
2019-02-19T21:40:13.681Z,13.73
2019-02-19T21:42:41.028Z,14.37
2019-02-19T21:45:09.741Z,14.37
2019-02-19T21:47:37.037Z,15.50
2019-02-19T21:50:09.481Z,14.93
2019-02-19T21:52:37.959Z,16.80
2019-02-19T21:55:11.913Z,15.37
2019-02-19T21:57:40.246Z,15.07
2019-02-19T22:00:21.668Z,15.20
2019-02-19T22:02:49.293Z,17.27
2019-02-19T22:05:17.769Z,16.13
2019-02-19T22:07:46.046Z,16.50
2019-02-19T22:10:15.959Z,17.37
2019-02-19T22:12:44.243Z,19.27
2019-02-19T22:15:15.584Z,16.20
2019-02-19T22:17:43.664Z,16.77
2019-02-19T22:20:28.270Z,16.73
2019-02-19T22:22:56.590Z,15.93
2019-02-19T22:25:26.503Z,16.10
2019-02-19T22:27:54.983Z,16.90
2019-02-19T22:30:23.464Z,19.30
2019-02-19T22:32:51.945Z,15.40
2019-02-19T22:35:20.083Z,15.43
2019-02-19T22:37:49.727Z,14.83
2019-02-19T22:40:18.002Z,16.00
2019-02-19T22:42:46.276Z,15.80
2019-02-19T22:45:14.554Z,15.73
2019-02-19T22:47:42.623Z,19.27
2019-02-19T22:50:11.105Z,21.20
2019-02-19T22:52:39.584Z,27.17
2019-02-19T22:55:17.077Z,20.53
2019-02-19T22:57:45.353Z,16.57
2019-02-19T23:00:27.963Z,11.43
2019-02-19T23:02:55.625Z,15.53
2019-02-19T23:05:24.105Z,13.50
2019-02-19T23:07:53.790Z,13.17
2019-02-19T23:10:21.886Z,10.23
2019-02-19T23:12:50.162Z,14.13
2019-02-19T23:15:18.437Z,11.83
2019-02-19T23:17:46.509Z,13.73
2019-02-19T23:20:14.801Z,12.47
2019-02-19T23:22:43.059Z,17.33
2019-02-19T23:25:12.564Z,15.10
2019-02-19T23:27:40.839Z,20.43
2019-02-19T23:30:09.115Z,18.63
2019-02-19T23:32:37.391Z,17.57
2019-02-19T23:35:09.814Z,19.13
2019-02-19T23:37:38.038Z,16.27
2019-02-19T23:40:06.318Z,20.80
2019-02-19T23:42:34.590Z,16.07
2019-02-19T23:45:22.433Z,12.03
2019-02-19T23:47:50.807Z,7.67
2019-02-19T23:50:18.873Z,14.27
2019-02-19T23:52:47.150Z,7.70
2019-02-19T23:55:15.424Z,17.60
2019-02-19T23:57:43.496Z,8.03
